« 人騒がせなコンボイ君 福島空港 2014/5/24 sat | トップページ | 北宇都宮駐屯地開設41周年記念行事 宇都宮飛行場 2014/5/25 sun »

2014/05/25

山形見参東北六魂祭 山形市 2014/5/24 sat

復興を祈念して、東北各地を巡行している「東北六魂祭」。今年は、山形市で開催される。

20140524_yamagata_00yamagata

いざ、いざ、いざ

20140524_yamagata_01yamagata

山形見参

20140524_yamagata_02yamagata

でも、やっぱり仙台七夕が目立つ。

20140524_yamagata_03ja80gt

上空を県警のへりが警戒中

JA80GT A109E 山形県警察

20140524_yamagata_04ja6603

東北放送のカメラシップが、お昼前に中継?

JA6603 AS355

RJSC 240300Z 33003KT 260V050 9999 FEW040 BKN/// 19/09 Q1016

20140524_yamagata_05bi

12:26 会場偵察にソロ機の航過から始まった

20140524_yamagata_06bi

折り返して、西に抜ける

20140524_yamagata_07cityhall

山形市役所屋上には、取材陣が陣取って

20140524_yamagata_08bi

1.ワイド・ローパス

20140524_yamagata_09bi

東側でプロシージアをとって・・・

20140524_yamagata_10bi

20140524_yamagata_11bi

20140524_yamagata_12bi

2.デルタ360゜ターン

20140524_yamagata_13bi_2

20140524_yamagata_14bi

3.スワン・ローパス

20140524_yamagata_15bi_2

20140524_yamagata_16bi

20140524_yamagata_17bi

4.さくら

20140524_yamagata_18bi

20140524_yamagata_19bi_3

4.ビック・ハート(レベル・キューピット)

20140524_yamagata_20bi

20140524_yamagata_21bi_2

20140524_yamagata_22bi

20140524_yamagata_23bi

5.ダブル・クローバーリーフ・ターン

20140524_yamagata_24bi

20140524_yamagata_25bi

7.ダブルナイフエッジ・ローパス

20140524_yamagata_26bi

20140524_yamagata_27bi

20140524_yamagata_28bi

8.720゜ターン

20140524_yamagata_29bi

20140524_yamagata_30bi

20140524_yamagata_31bi

20140524_yamagata_32bi

9.チェンジ・オーバー・ターン

20140524_yamagata_33bi

10.単機ローパス(ナイフエッジ)

20140524_yamagata_34bi

11.サンライズ(北向)

20140524_yamagata_35bi

20140524_yamagata_36bi

12.サンライズ(南向)

20140524_yamagata_37bi

20140524_yamagata_38bi

おまけ.バイバイ・デルタ・ローパス 4830

RJSC 240400Z 01006KT 330V060 9999 FEW040 BKN/// 21/10 Q1014

20140524_yamagata_39yamagata

山形市内は、ビルが多く開けた場所が少なかった。さて、どこで撮影するか? 思案しながら、歩いてたどりついたのが、ココ。少し離れた開けた場所から、西空を見ながら臨んだ。背後に学校があり、その屋上で生徒達が、見学していた。小生もそこで見たかったぜよ。

|

« 人騒がせなコンボイ君 福島空港 2014/5/24 sat | トップページ | 北宇都宮駐屯地開設41周年記念行事 宇都宮飛行場 2014/5/25 sun »

BI」カテゴリの記事

場外」カテゴリの記事

コメント

コメントを書く



(ウェブ上には掲載しません)


コメントは記事投稿者が公開するまで表示されません。



トラックバック


この記事へのトラックバック一覧です: 山形見参東北六魂祭 山形市 2014/5/24 sat:

« 人騒がせなコンボイ君 福島空港 2014/5/24 sat | トップページ | 北宇都宮駐屯地開設41周年記念行事 宇都宮飛行場 2014/5/25 sun »